createdAt,value
2023-04-02T00:01:37.896Z,61682.84
2023-04-02T00:06:44.879Z,61692.13
2023-04-02T00:11:49.748Z,61646.66
2023-04-02T00:16:56.451Z,61696.09
2023-04-02T00:22:01.596Z,61651.50
2023-04-02T00:27:04.349Z,61613.28
2023-04-02T00:32:20.631Z,61660.69
2023-04-02T00:37:28.194Z,61653.94
2023-04-02T00:42:32.203Z,61643.28
2023-04-02T00:47:40.044Z,61639.47
2023-04-02T00:52:44.929Z,61638.88
2023-04-02T00:57:49.630Z,61629.03
2023-04-02T01:03:35.219Z,61646.16
2023-04-02T01:08:50.178Z,61614.31
2023-04-02T01:14:03.136Z,61644.50
2023-04-02T01:19:27.287Z,61646.63
2023-04-02T01:24:33.066Z,61641.94
2023-04-02T01:29:39.404Z,61615.38
2023-04-02T01:34:44.765Z,61635.22
2023-04-02T01:40:09.249Z,61608.94
2023-04-02T01:45:15.538Z,61595.50
2023-04-02T01:50:31.426Z,61646.53
2023-04-02T01:55:40.253Z,61621.84
2023-04-02T02:00:48.999Z,61586.16
2023-04-02T02:05:52.093Z,61580.78
2023-04-02T02:10:54.667Z,61561.53
2023-04-02T02:16:00.383Z,61573.84
2023-04-02T02:21:06.311Z,61598.34
2023-04-02T02:26:09.511Z,61576.34
2023-04-02T02:31:19.480Z,61613.44
2023-04-02T02:36:26.152Z,61564.09
2023-04-02T02:41:34.443Z,61590.06
2023-04-02T02:46:41.587Z,61564.53
2023-04-02T02:51:49.147Z,61547.56
2023-04-02T02:56:55.379Z,61568.59
2023-04-02T03:02:00.648Z,61572.56
2023-04-02T03:07:06.123Z,61556.41
2023-04-02T03:12:25.098Z,61523.13
2023-04-02T03:17:35.765Z,61531.19
2023-04-02T03:22:42.404Z,61519.91
2023-04-02T03:27:48.459Z,61508.94
2023-04-02T03:32:55.706Z,61512.88
2023-04-02T03:38:03.207Z,61479.63
2023-04-02T03:43:14.449Z,61502.16
2023-04-02T03:48:26.548Z,61494.22
2023-04-02T03:53:32.191Z,61466.88
2023-04-02T03:58:41.040Z,61434.53
2023-04-02T04:03:48.046Z,61496.78
2023-04-02T04:08:54.678Z,61487.94
2023-04-02T04:14:00.952Z,61474.75
2023-04-02T04:19:11.268Z,61458.03
2023-04-02T04:24:21.767Z,61427.94
2023-04-02T04:29:40.711Z,61409.94
2023-04-02T04:34:51.434Z,61443.22
2023-04-02T04:39:58.746Z,61431.19
2023-04-02T04:45:07.458Z,61435.91
2023-04-02T04:50:16.913Z,61412.97
2023-04-02T04:55:27.762Z,61417.97
2023-04-02T05:00:42.376Z,61403.31
2023-04-02T05:05:47.846Z,61399.69
2023-04-02T05:10:53.113Z,61369.03
2023-04-02T05:16:05.634Z,61394.06
2023-04-02T05:21:20.836Z,61377.53
2023-04-02T05:26:30.959Z,61356.81
2023-04-02T05:31:41.208Z,61408.13
2023-04-02T05:36:48.842Z,61397.94
2023-04-02T05:42:01.259Z,61380.63
2023-04-02T05:47:09.087Z,61386.97
2023-04-02T05:52:18.558Z,61374.25
2023-04-02T05:57:39.473Z,61372.28
2023-04-02T06:02:54.926Z,61383.41
2023-04-02T06:08:04.855Z,61405.63
2023-04-02T06:13:09.466Z,61375.84
2023-04-02T06:18:17.635Z,61403.59
2023-04-02T06:23:30.704Z,61409.78
2023-04-02T06:28:40.494Z,61428.84
2023-04-02T06:33:44.348Z,61359.44
2023-04-02T06:38:49.877Z,61368.81
2023-04-02T06:43:56.926Z,61411.59
2023-04-02T06:49:06.470Z,61398.97
2023-04-02T06:54:15.326Z,61363.84
2023-04-02T06:59:18.883Z,61375.31
2023-04-02T07:04:22.076Z,61405.19
2023-04-02T07:09:26.763Z,61397.25
2023-04-02T07:14:29.733Z,61380.75
2023-04-02T07:19:32.426Z,61448.53
2023-04-02T07:24:36.490Z,61420.56
2023-04-02T07:29:42.559Z,61453.63
2023-04-02T07:34:45.435Z,61507.28
2023-04-02T07:39:49.346Z,61557.84
2023-04-02T07:44:53.062Z,61603.44
2023-04-02T07:49:55.618Z,61550.84
2023-04-02T07:54:59.609Z,61543.22
2023-04-02T08:00:04.681Z,61563.66
2023-04-02T08:05:08.891Z,61581.06
2023-04-02T08:10:13.591Z,61533.00
2023-04-02T08:15:17.442Z,61538.50
2023-04-02T08:20:22.380Z,61582.00
2023-04-02T08:25:26.544Z,61601.53
2023-04-02T08:30:29.303Z,61566.19
2023-04-02T08:35:32.168Z,61580.44
2023-04-02T08:40:39.028Z,61591.84
2023-04-02T08:45:52.867Z,61605.28
2023-04-02T08:50:55.587Z,61624.13
2023-04-02T08:56:05.547Z,61658.72
2023-04-02T09:01:12.937Z,61976.81
2023-04-02T09:06:19.801Z,62154.63
2023-04-02T09:11:27.276Z,62292.78
2023-04-02T09:16:41.161Z,62327.28
2023-04-02T09:21:46.946Z,62399.41
2023-04-02T09:26:50.949Z,62277.69
2023-04-02T09:32:03.286Z,62272.84
2023-04-02T09:37:09.564Z,62370.13
2023-04-02T09:42:33.973Z,62314.59
2023-04-02T09:47:37.249Z,62270.31
2023-04-02T09:52:39.936Z,62377.22
2023-04-02T09:57:44.421Z,62399.16
2023-04-02T10:02:48.146Z,62402.97
2023-04-02T10:07:53.146Z,62334.84
2023-04-02T10:13:02.375Z,62286.72
2023-04-02T10:18:12.369Z,62282.31
2023-04-02T10:23:17.703Z,62240.56
2023-04-02T10:28:34.437Z,62263.09
2023-04-02T10:33:38.598Z,62225.75
2023-04-02T10:38:45.026Z,62275.53
2023-04-02T10:44:27.552Z,62287.91
2023-04-02T10:49:40.977Z,62315.81
2023-04-02T10:54:50.141Z,62330.44
2023-04-02T11:00:01.237Z,62222.19
2023-04-02T11:05:15.585Z,62407.06
2023-04-02T11:10:21.061Z,62319.41
2023-04-02T11:15:25.495Z,62327.78
2023-04-02T11:21:02.903Z,62363.03
2023-04-02T11:26:47.336Z,62316.38
2023-04-02T11:32:12.121Z,62350.00
2023-04-02T11:37:33.320Z,62269.72
2023-04-02T11:42:37.000Z,62238.06
2023-04-02T11:47:41.034Z,62285.91
2023-04-02T11:52:53.626Z,62250.38
2023-04-02T11:58:27.148Z,62308.28
2023-04-02T12:04:02.455Z,62381.22
2023-04-02T12:09:15.923Z,62326.81
2023-04-02T12:14:42.860Z,62312.25
2023-04-02T12:19:50.397Z,62278.13
2023-04-02T12:24:57.288Z,62373.19
2023-04-02T12:30:15.489Z,62364.97
2023-04-02T12:35:30.331Z,62418.06
2023-04-02T12:40:32.934Z,62351.59
2023-04-02T12:45:36.620Z,62371.72
2023-04-02T12:50:41.810Z,62317.03
2023-04-02T12:55:48.249Z,62343.84
2023-04-02T13:00:50.955Z,62362.44
2023-04-02T13:05:58.056Z,62380.59
2023-04-02T13:11:02.583Z,62301.41
2023-04-02T13:16:26.916Z,62350.22
2023-04-02T13:21:32.171Z,62380.66
2023-04-02T13:26:34.807Z,62340.22
2023-04-02T13:31:37.462Z,62313.31
2023-04-02T13:36:42.419Z,62441.69
2023-04-02T13:41:46.900Z,62380.19
2023-04-02T13:46:49.500Z,62372.28
2023-04-02T13:51:57.852Z,62315.00
2023-04-02T13:57:00.622Z,62431.00
2023-04-02T14:02:07.572Z,62422.91
2023-04-02T14:07:30.040Z,62436.34
2023-04-02T14:12:45.392Z,62386.47
2023-04-02T14:17:59.484Z,62388.00
2023-04-02T14:23:21.366Z,62362.19
2023-04-02T14:28:30.008Z,62381.56
2023-04-02T14:33:44.321Z,62390.78
2023-04-02T14:38:55.469Z,62371.16
2023-04-02T14:44:02.049Z,62357.38
2023-04-02T14:49:13.027Z,62361.44
2023-04-02T14:54:28.972Z,62350.22
2023-04-02T14:59:35.526Z,62333.22
2023-04-02T15:04:42.919Z,62313.53
2023-04-02T15:09:54.247Z,62295.41
2023-04-02T15:15:03.556Z,62404.47
2023-04-02T15:20:14.191Z,62407.81
2023-04-02T15:25:28.919Z,62397.84
2023-04-02T15:30:36.984Z,62406.84
2023-04-02T15:35:48.502Z,62351.59
2023-04-02T15:40:58.174Z,62296.25
2023-04-02T15:46:10.320Z,62313.22
2023-04-02T15:51:26.438Z,62374.69
2023-04-02T15:56:41.316Z,62392.06
2023-04-02T16:01:55.000Z,62350.38
2023-04-02T16:07:12.377Z,62435.44
2023-04-02T16:12:18.760Z,62400.28
2023-04-02T16:17:27.401Z,62302.56
2023-04-02T16:22:33.247Z,62260.72
2023-04-02T16:27:43.071Z,62317.47
2023-04-02T16:33:01.193Z,62332.22
2023-04-02T16:38:15.324Z,62391.63
2023-04-02T16:43:27.770Z,62321.06
2023-04-02T16:48:42.029Z,62287.13
2023-04-02T16:54:01.398Z,62289.53
2023-04-02T16:59:19.733Z,62221.41
2023-04-02T17:04:46.232Z,62183.31
2023-04-02T17:09:51.477Z,62106.97
2023-04-02T17:15:00.754Z,62060.00
2023-04-02T17:20:03.404Z,61999.72
2023-04-02T17:25:15.938Z,61943.84
2023-04-02T17:30:24.716Z,61934.16
2023-04-02T17:35:34.132Z,61920.66
2023-04-02T17:40:44.062Z,61869.56
2023-04-02T17:45:52.219Z,61870.19
2023-04-02T17:51:03.902Z,61849.34
2023-04-02T17:56:18.944Z,61830.22
2023-04-02T18:01:31.235Z,61770.53
2023-04-02T18:06:42.280Z,61767.19
2023-04-02T18:11:52.582Z,61727.06
2023-04-02T18:17:02.883Z,61703.88
2023-04-02T18:22:14.440Z,61695.31
2023-04-02T18:27:31.678Z,61639.16
2023-04-02T18:33:00.496Z,61644.50
2023-04-02T18:38:19.715Z,61572.41
2023-04-02T18:43:32.496Z,61551.13
2023-04-02T18:48:42.538Z,61569.75
2023-04-02T18:53:45.473Z,61499.66
2023-04-02T18:58:56.962Z,61512.72
2023-04-02T19:04:04.924Z,61490.63
2023-04-02T19:09:15.656Z,61505.22
2023-04-02T19:14:20.680Z,61463.50
2023-04-02T19:19:27.370Z,61460.56
2023-04-02T19:24:41.389Z,61472.03
2023-04-02T19:29:51.189Z,61439.16
2023-04-02T19:34:59.748Z,61424.28
2023-04-02T19:40:24.886Z,61414.22
2023-04-02T19:45:38.933Z,61400.09
2023-04-02T19:50:43.989Z,61402.28
2023-04-02T19:55:47.501Z,61359.03
2023-04-02T20:00:50.124Z,61396.47
2023-04-02T20:05:54.469Z,61407.06
2023-04-02T20:11:00.044Z,61384.06
2023-04-02T20:16:04.593Z,61397.28
2023-04-02T20:21:08.991Z,61410.94
2023-04-02T20:26:12.722Z,61426.28
2023-04-02T20:31:17.224Z,61478.16
2023-04-02T20:36:21.667Z,61448.38
2023-04-02T20:41:24.630Z,61459.06
2023-04-02T20:46:27.215Z,61440.97
2023-04-02T20:51:31.445Z,61451.81
2023-04-02T20:56:36.020Z,61435.22
2023-04-02T21:01:38.658Z,61469.22
2023-04-02T21:06:43.238Z,61445.44
2023-04-02T21:11:46.345Z,61456.81
2023-04-02T21:16:48.900Z,61449.41
2023-04-02T21:21:56.039Z,61437.19
2023-04-02T21:26:59.592Z,61423.56
2023-04-02T21:32:05.708Z,61431.06
2023-04-02T21:37:18.421Z,61412.63
2023-04-02T21:42:21.135Z,61450.78
2023-04-02T21:47:24.334Z,61423.06
2023-04-02T21:52:28.248Z,61389.81
2023-04-02T21:57:30.900Z,61434.16
2023-04-02T22:02:33.560Z,61404.50
2023-04-02T22:07:37.487Z,61361.09
2023-04-02T22:12:40.271Z,61341.81
2023-04-02T22:17:42.882Z,61368.97
2023-04-02T22:22:46.802Z,61317.31
2023-04-02T22:27:51.874Z,61377.88
2023-04-02T22:32:54.507Z,61337.00
2023-04-02T22:37:58.531Z,61343.97
2023-04-02T22:43:01.172Z,61363.38
2023-04-02T22:48:03.817Z,61347.75
2023-04-02T22:53:07.789Z,61330.44
2023-04-02T22:58:10.725Z,61359.75
2023-04-02T23:03:13.354Z,61326.19
2023-04-02T23:08:17.281Z,61327.13
2023-04-02T23:13:19.880Z,61319.19
2023-04-02T23:18:22.693Z,61313.97
2023-04-02T23:23:27.018Z,61295.69
2023-04-02T23:28:29.584Z,61284.44
2023-04-02T23:33:32.456Z,61289.34
2023-04-02T23:38:36.441Z,61279.09
2023-04-02T23:43:40.506Z,61299.94
2023-04-02T23:48:44.504Z,61258.03
2023-04-02T23:53:48.886Z,61252.75
2023-04-02T23:58:51.671Z,61297.50
